sensor_id;sensor_type;location;lat;lon;timestamp;P1;durP1;ratioP1;P2;durP2;ratioP2
77051;SDS011;65980;44.898;8.602;2024-03-02T00:02:20;3.45;;;2.70;;
77051;SDS011;65980;44.898;8.602;2024-03-02T00:05:24;3.15;;;2.60;;
77051;SDS011;65980;44.898;8.602;2024-03-02T00:08:29;3.38;;;2.80;;
77051;SDS011;65980;44.898;8.602;2024-03-02T00:11:34;6.85;;;3.00;;
77051;SDS011;65980;44.898;8.602;2024-03-02T00:14:42;4.00;;;2.80;;
77051;SDS011;65980;44.898;8.602;2024-03-02T00:17:47;4.15;;;2.90;;
77051;SDS011;65980;44.898;8.602;2024-03-02T00:20:57;4.57;;;3.38;;
77051;SDS011;65980;44.898;8.602;2024-03-02T00:24:06;5.35;;;3.55;;
77051;SDS011;65980;44.898;8.602;2024-03-02T00:27:22;4.00;;;3.40;;
77051;SDS011;65980;44.898;8.602;2024-03-02T00:33:57;5.30;;;3.35;;
77051;SDS011;65980;44.898;8.602;2024-03-02T00:37:08;4.63;;;3.58;;
77051;SDS011;65980;44.898;8.602;2024-03-02T00:40:13;7.80;;;5.88;;
77051;SDS011;65980;44.898;8.602;2024-03-02T00:46:35;8.02;;;5.68;;
77051;SDS011;65980;44.898;8.602;2024-03-02T00:49:40;8.95;;;6.63;;
77051;SDS011;65980;44.898;8.602;2024-03-02T00:52:45;12.55;;;7.53;;
77051;SDS011;65980;44.898;8.602;2024-03-02T00:55:52;10.52;;;7.65;;
77051;SDS011;65980;44.898;8.602;2024-03-02T00:58:57;11.30;;;8.63;;
77051;SDS011;65980;44.898;8.602;2024-03-02T01:02:02;12.55;;;8.60;;
77051;SDS011;65980;44.898;8.602;2024-03-02T01:05:05;11.20;;;8.30;;
77051;SDS011;65980;44.898;8.602;2024-03-02T01:08:10;9.90;;;7.65;;
77051;SDS011;65980;44.898;8.602;2024-03-02T01:11:14;11.48;;;7.32;;
77051;SDS011;65980;44.898;8.602;2024-03-02T01:14:18;11.48;;;8.50;;
77051;SDS011;65980;44.898;8.602;2024-03-02T01:17:23;9.45;;;7.10;;
77051;SDS011;65980;44.898;8.602;2024-03-02T01:20:27;9.95;;;7.30;;
77051;SDS011;65980;44.898;8.602;2024-03-02T01:23:32;8.30;;;5.50;;
77051;SDS011;65980;44.898;8.602;2024-03-02T01:26:37;8.55;;;5.25;;
77051;SDS011;65980;44.898;8.602;2024-03-02T01:29:41;7.55;;;5.30;;
77051;SDS011;65980;44.898;8.602;2024-03-02T01:32:46;6.10;;;4.65;;
77051;SDS011;65980;44.898;8.602;2024-03-02T01:35:50;6.45;;;4.78;;
77051;SDS011;65980;44.898;8.602;2024-03-02T01:38:54;5.68;;;4.20;;
77051;SDS011;65980;44.898;8.602;2024-03-02T01:41:58;5.43;;;3.75;;
77051;SDS011;65980;44.898;8.602;2024-03-02T01:45:06;5.00;;;3.90;;
77051;SDS011;65980;44.898;8.602;2024-03-02T01:48:12;6.43;;;4.53;;
77051;SDS011;65980;44.898;8.602;2024-03-02T01:51:16;10.18;;;4.93;;
77051;SDS011;65980;44.898;8.602;2024-03-02T01:54:20;6.90;;;5.05;;
77051;SDS011;65980;44.898;8.602;2024-03-02T02:03:33;6.53;;;5.20;;
77051;SDS011;65980;44.898;8.602;2024-03-02T02:06:37;7.13;;;5.47;;
77051;SDS011;65980;44.898;8.602;2024-03-02T02:09:42;6.85;;;4.95;;
77051;SDS011;65980;44.898;8.602;2024-03-02T02:12:46;8.48;;;5.25;;
77051;SDS011;65980;44.898;8.602;2024-03-02T02:15:50;7.53;;;5.80;;
77051;SDS011;65980;44.898;8.602;2024-03-02T02:18:56;9.63;;;6.72;;
77051;SDS011;65980;44.898;8.602;2024-03-02T02:22:00;9.63;;;7.60;;
77051;SDS011;65980;44.898;8.602;2024-03-02T02:25:04;10.00;;;7.82;;
77051;SDS011;65980;44.898;8.602;2024-03-02T02:28:09;11.30;;;8.07;;
77051;SDS011;65980;44.898;8.602;2024-03-02T02:31:13;12.70;;;9.25;;
77051;SDS011;65980;44.898;8.602;2024-03-02T02:34:17;12.07;;;8.80;;
77051;SDS011;65980;44.898;8.602;2024-03-02T02:37:22;12.05;;;9.23;;
77051;SDS011;65980;44.898;8.602;2024-03-02T02:40:27;15.50;;;10.30;;
77051;SDS011;65980;44.898;8.602;2024-03-02T02:43:35;20.83;;;10.93;;
77051;SDS011;65980;44.898;8.602;2024-03-02T02:46:39;16.50;;;10.73;;
77051;SDS011;65980;44.898;8.602;2024-03-02T02:49:44;16.17;;;10.77;;
77051;SDS011;65980;44.898;8.602;2024-03-02T02:52:50;20.80;;;12.55;;
77051;SDS011;65980;44.898;8.602;2024-03-02T02:55:54;17.85;;;12.50;;
77051;SDS011;65980;44.898;8.602;2024-03-02T02:58:58;19.92;;;13.05;;
77051;SDS011;65980;44.898;8.602;2024-03-02T03:02:03;24.95;;;13.07;;
77051;SDS011;65980;44.898;8.602;2024-03-02T03:05:11;19.50;;;12.82;;
77051;SDS011;65980;44.898;8.602;2024-03-02T03:08:16;23.35;;;12.55;;
77051;SDS011;65980;44.898;8.602;2024-03-02T03:11:20;20.55;;;13.13;;
77051;SDS011;65980;44.898;8.602;2024-03-02T03:14:26;20.80;;;12.68;;
77051;SDS011;65980;44.898;8.602;2024-03-02T03:17:30;22.40;;;11.60;;
77051;SDS011;65980;44.898;8.602;2024-03-02T03:20:35;19.77;;;12.43;;
77051;SDS011;65980;44.898;8.602;2024-03-02T03:23:39;22.90;;;12.10;;
77051;SDS011;65980;44.898;8.602;2024-03-02T03:26:45;22.58;;;12.10;;
77051;SDS011;65980;44.898;8.602;2024-03-02T03:32:54;20.05;;;11.35;;
77051;SDS011;65980;44.898;8.602;2024-03-02T03:35:58;18.80;;;11.38;;
77051;SDS011;65980;44.898;8.602;2024-03-02T03:39:02;20.48;;;11.90;;
77051;SDS011;65980;44.898;8.602;2024-03-02T03:42:08;21.42;;;11.88;;
77051;SDS011;65980;44.898;8.602;2024-03-02T03:45:12;17.90;;;11.15;;
77051;SDS011;65980;44.898;8.602;2024-03-02T03:48:17;22.13;;;11.60;;
77051;SDS011;65980;44.898;8.602;2024-03-02T03:51:21;24.33;;;11.80;;
77051;SDS011;65980;44.898;8.602;2024-03-02T03:54:28;21.00;;;10.68;;
77051;SDS011;65980;44.898;8.602;2024-03-02T03:57:32;16.75;;;9.60;;
77051;SDS011;65980;44.898;8.602;2024-03-02T04:00:36;19.60;;;10.95;;
77051;SDS011;65980;44.898;8.602;2024-03-02T04:03:40;17.25;;;10.35;;
77051;SDS011;65980;44.898;8.602;2024-03-02T04:06:44;16.65;;;9.98;;
77051;SDS011;65980;44.898;8.602;2024-03-02T04:09:49;18.15;;;10.75;;
77051;SDS011;65980;44.898;8.602;2024-03-02T04:12:53;15.63;;;9.23;;
77051;SDS011;65980;44.898;8.602;2024-03-02T04:15:58;22.30;;;9.70;;
77051;SDS011;65980;44.898;8.602;2024-03-02T04:19:02;16.13;;;9.35;;
77051;SDS011;65980;44.898;8.602;2024-03-02T04:22:07;16.88;;;8.57;;
77051;SDS011;65980;44.898;8.602;2024-03-02T04:25:11;14.20;;;8.10;;
77051;SDS011;65980;44.898;8.602;2024-03-02T04:28:16;23.77;;;8.40;;
77051;SDS011;65980;44.898;8.602;2024-03-02T04:31:20;14.88;;;8.48;;
77051;SDS011;65980;44.898;8.602;2024-03-02T04:34:25;14.45;;;7.35;;
77051;SDS011;65980;44.898;8.602;2024-03-02T04:37:29;11.20;;;6.60;;
77051;SDS011;65980;44.898;8.602;2024-03-02T04:40:34;11.48;;;6.30;;
77051;SDS011;65980;44.898;8.602;2024-03-02T04:43:40;11.60;;;5.60;;
77051;SDS011;65980;44.898;8.602;2024-03-02T04:46:45;7.63;;;4.85;;
77051;SDS011;65980;44.898;8.602;2024-03-02T04:49:49;8.18;;;4.28;;
77051;SDS011;65980;44.898;8.602;2024-03-02T04:52:54;7.25;;;3.70;;
77051;SDS011;65980;44.898;8.602;2024-03-02T04:55:58;7.13;;;4.38;;
77051;SDS011;65980;44.898;8.602;2024-03-02T04:59:21;6.68;;;3.53;;
77051;SDS011;65980;44.898;8.602;2024-03-02T05:02:25;6.65;;;4.00;;
77051;SDS011;65980;44.898;8.602;2024-03-02T05:05:30;7.50;;;3.70;;
77051;SDS011;65980;44.898;8.602;2024-03-02T05:08:36;9.87;;;4.07;;
77051;SDS011;65980;44.898;8.602;2024-03-02T05:11:42;6.32;;;3.65;;
77051;SDS011;65980;44.898;8.602;2024-03-02T05:15:06;7.22;;;3.72;;
77051;SDS011;65980;44.898;8.602;2024-03-02T05:18:11;8.82;;;3.70;;
77051;SDS011;65980;44.898;8.602;2024-03-02T05:21:16;5.30;;;3.50;;
77051;SDS011;65980;44.898;8.602;2024-03-02T05:27:24;7.60;;;3.60;;
77051;SDS011;65980;44.898;8.602;2024-03-02T05:30:28;6.55;;;4.53;;
77051;SDS011;65980;44.898;8.602;2024-03-02T05:36:37;7.15;;;4.78;;
77051;SDS011;65980;44.898;8.602;2024-03-02T05:39:43;8.95;;;5.18;;
77051;SDS011;65980;44.898;8.602;2024-03-02T05:42:47;9.77;;;5.28;;
77051;SDS011;65980;44.898;8.602;2024-03-02T05:45:55;11.60;;;5.30;;
77051;SDS011;65980;44.898;8.602;2024-03-02T05:48:59;9.38;;;5.72;;
77051;SDS011;65980;44.898;8.602;2024-03-02T05:52:04;10.85;;;5.25;;
77051;SDS011;65980;44.898;8.602;2024-03-02T05:55:09;11.65;;;5.78;;
77051;SDS011;65980;44.898;8.602;2024-03-02T05:58:13;10.85;;;5.40;;
77051;SDS011;65980;44.898;8.602;2024-03-02T06:01:35;9.18;;;5.82;;
77051;SDS011;65980;44.898;8.602;2024-03-02T06:04:39;9.98;;;5.70;;
77051;SDS011;65980;44.898;8.602;2024-03-02T06:07:44;10.90;;;6.10;;
77051;SDS011;65980;44.898;8.602;2024-03-02T06:10:49;12.52;;;7.50;;
77051;SDS011;65980;44.898;8.602;2024-03-02T06:13:53;14.57;;;7.35;;
77051;SDS011;65980;44.898;8.602;2024-03-02T06:16:59;13.10;;;7.57;;
77051;SDS011;65980;44.898;8.602;2024-03-02T06:20:03;11.00;;;7.00;;
77051;SDS011;65980;44.898;8.602;2024-03-02T06:23:08;11.57;;;7.45;;
77051;SDS011;65980;44.898;8.602;2024-03-02T06:26:13;14.20;;;7.50;;
77051;SDS011;65980;44.898;8.602;2024-03-02T06:29:18;10.77;;;6.93;;
77051;SDS011;65980;44.898;8.602;2024-03-02T06:32:21;10.80;;;6.22;;
77051;SDS011;65980;44.898;8.602;2024-03-02T06:35:27;9.27;;;4.97;;
77051;SDS011;65980;44.898;8.602;2024-03-02T06:38:31;7.88;;;5.05;;
77051;SDS011;65980;44.898;8.602;2024-03-02T06:41:36;8.05;;;4.90;;
77051;SDS011;65980;44.898;8.602;2024-03-02T06:44:41;6.55;;;4.85;;
77051;SDS011;65980;44.898;8.602;2024-03-02T06:47:45;7.30;;;4.43;;
77051;SDS011;65980;44.898;8.602;2024-03-02T06:50:49;5.85;;;3.97;;
77051;SDS011;65980;44.898;8.602;2024-03-02T06:53:54;9.85;;;5.03;;
77051;SDS011;65980;44.898;8.602;2024-03-02T06:56:59;6.45;;;4.63;;
77051;SDS011;65980;44.898;8.602;2024-03-02T07:00:04;9.13;;;4.45;;
77051;SDS011;65980;44.898;8.602;2024-03-02T07:03:12;7.88;;;4.28;;
77051;SDS011;65980;44.898;8.602;2024-03-02T07:06:17;6.47;;;3.63;;
77051;SDS011;65980;44.898;8.602;2024-03-02T07:09:22;4.40;;;3.20;;
77051;SDS011;65980;44.898;8.602;2024-03-02T07:12:26;5.28;;;3.08;;
77051;SDS011;65980;44.898;8.602;2024-03-02T07:15:30;4.70;;;2.55;;
77051;SDS011;65980;44.898;8.602;2024-03-02T07:18:55;5.70;;;3.00;;
77051;SDS011;65980;44.898;8.602;2024-03-02T07:22:00;6.13;;;2.90;;
77051;SDS011;65980;44.898;8.602;2024-03-02T07:25:06;4.80;;;2.70;;
77051;SDS011;65980;44.898;8.602;2024-03-02T07:28:11;4.05;;;2.83;;
77051;SDS011;65980;44.898;8.602;2024-03-02T07:31:16;4.93;;;3.00;;
77051;SDS011;65980;44.898;8.602;2024-03-02T07:34:21;4.65;;;3.20;;
77051;SDS011;65980;44.898;8.602;2024-03-02T07:37:25;6.10;;;3.70;;
77051;SDS011;65980;44.898;8.602;2024-03-02T07:40:30;4.60;;;3.67;;
77051;SDS011;65980;44.898;8.602;2024-03-02T07:43:35;8.43;;;4.50;;
77051;SDS011;65980;44.898;8.602;2024-03-02T07:46:43;6.18;;;3.60;;
77051;SDS011;65980;44.898;8.602;2024-03-02T07:49:48;4.78;;;2.97;;
77051;SDS011;65980;44.898;8.602;2024-03-02T07:52:57;4.55;;;2.80;;
77051;SDS011;65980;44.898;8.602;2024-03-02T07:56:01;5.00;;;2.88;;
77051;SDS011;65980;44.898;8.602;2024-03-02T07:59:07;3.55;;;2.80;;
77051;SDS011;65980;44.898;8.602;2024-03-02T08:02:12;4.32;;;3.25;;
77051;SDS011;65980;44.898;8.602;2024-03-02T08:05:16;6.40;;;2.97;;
77051;SDS011;65980;44.898;8.602;2024-03-02T08:08:22;4.72;;;3.17;;
77051;SDS011;65980;44.898;8.602;2024-03-02T08:11:26;4.68;;;3.17;;
77051;SDS011;65980;44.898;8.602;2024-03-02T08:14:31;3.78;;;2.67;;
77051;SDS011;65980;44.898;8.602;2024-03-02T08:17:35;4.72;;;3.15;;
77051;SDS011;65980;44.898;8.602;2024-03-02T08:20:40;6.35;;;3.38;;
77051;SDS011;65980;44.898;8.602;2024-03-02T08:23:45;6.97;;;3.53;;
77051;SDS011;65980;44.898;8.602;2024-03-02T08:26:49;5.13;;;3.78;;
77051;SDS011;65980;44.898;8.602;2024-03-02T08:29:53;6.95;;;4.20;;
77051;SDS011;65980;44.898;8.602;2024-03-02T08:32:59;5.78;;;4.20;;
77051;SDS011;65980;44.898;8.602;2024-03-02T08:36:04;6.20;;;4.00;;
77051;SDS011;65980;44.898;8.602;2024-03-02T08:39:09;6.60;;;4.07;;
77051;SDS011;65980;44.898;8.602;2024-03-02T08:42:20;5.90;;;3.97;;
77051;SDS011;65980;44.898;8.602;2024-03-02T08:45:25;8.80;;;4.45;;
77051;SDS011;65980;44.898;8.602;2024-03-02T08:48:29;6.82;;;4.22;;
77051;SDS011;65980;44.898;8.602;2024-03-02T08:51:33;6.13;;;4.20;;
77051;SDS011;65980;44.898;8.602;2024-03-02T08:54:37;6.32;;;4.40;;
77051;SDS011;65980;44.898;8.602;2024-03-02T08:57:42;7.70;;;4.90;;
77051;SDS011;65980;44.898;8.602;2024-03-02T09:00:47;6.88;;;4.72;;
77051;SDS011;65980;44.898;8.602;2024-03-02T09:03:52;10.55;;;6.15;;
77051;SDS011;65980;44.898;8.602;2024-03-02T09:06:57;10.02;;;6.53;;
77051;SDS011;65980;44.898;8.602;2024-03-02T09:10:01;11.20;;;6.10;;
77051;SDS011;65980;44.898;8.602;2024-03-02T09:13:06;8.75;;;6.22;;
77051;SDS011;65980;44.898;8.602;2024-03-02T09:16:10;11.07;;;6.80;;
77051;SDS011;65980;44.898;8.602;2024-03-02T09:19:15;9.93;;;6.70;;
77051;SDS011;65980;44.898;8.602;2024-03-02T09:22:20;12.02;;;7.07;;
77051;SDS011;65980;44.898;8.602;2024-03-02T09:25:25;11.40;;;7.88;;
77051;SDS011;65980;44.898;8.602;2024-03-02T09:28:29;12.32;;;6.93;;
77051;SDS011;65980;44.898;8.602;2024-03-02T09:31:33;12.38;;;6.47;;
77051;SDS011;65980;44.898;8.602;2024-03-02T09:34:37;10.45;;;6.25;;
77051;SDS011;65980;44.898;8.602;2024-03-02T09:37:41;11.13;;;7.68;;
77051;SDS011;65980;44.898;8.602;2024-03-02T09:40:46;10.63;;;6.90;;
77051;SDS011;65980;44.898;8.602;2024-03-02T09:43:51;11.60;;;6.88;;
77051;SDS011;65980;44.898;8.602;2024-03-02T09:46:56;11.38;;;7.30;;
77051;SDS011;65980;44.898;8.602;2024-03-02T09:53:04;11.63;;;8.02;;
77051;SDS011;65980;44.898;8.602;2024-03-02T09:56:10;16.77;;;8.75;;
77051;SDS011;65980;44.898;8.602;2024-03-02T09:59:16;11.25;;;8.25;;
77051;SDS011;65980;44.898;8.602;2024-03-02T10:02:23;11.57;;;7.57;;
77051;SDS011;65980;44.898;8.602;2024-03-02T10:05:28;8.13;;;6.00;;
77051;SDS011;65980;44.898;8.602;2024-03-02T10:08:42;10.45;;;6.15;;
77051;SDS011;65980;44.898;8.602;2024-03-02T10:11:48;4.75;;;3.90;;
77051;SDS011;65980;44.898;8.602;2024-03-02T10:14:57;7.43;;;4.57;;
77051;SDS011;65980;44.898;8.602;2024-03-02T10:18:08;6.57;;;4.88;;
77051;SDS011;65980;44.898;8.602;2024-03-02T10:21:16;8.25;;;5.13;;
77051;SDS011;65980;44.898;8.602;2024-03-02T10:24:21;7.22;;;4.85;;
77051;SDS011;65980;44.898;8.602;2024-03-02T10:27:26;11.23;;;5.35;;
77051;SDS011;65980;44.898;8.602;2024-03-02T10:30:33;7.18;;;3.78;;
77051;SDS011;65980;44.898;8.602;2024-03-02T10:33:38;6.38;;;3.47;;
77051;SDS011;65980;44.898;8.602;2024-03-02T10:36:44;4.43;;;3.15;;
77051;SDS011;65980;44.898;8.602;2024-03-02T10:39:51;5.75;;;4.03;;
77051;SDS011;65980;44.898;8.602;2024-03-02T10:42:56;4.82;;;3.67;;
77051;SDS011;65980;44.898;8.602;2024-03-02T10:46:01;4.50;;;3.45;;
77051;SDS011;65980;44.898;8.602;2024-03-02T10:49:07;7.78;;;4.53;;
77051;SDS011;65980;44.898;8.602;2024-03-02T10:52:11;3.70;;;3.00;;
77051;SDS011;65980;44.898;8.602;2024-03-02T10:55:15;7.10;;;5.03;;
77051;SDS011;65980;44.898;8.602;2024-03-02T10:58:19;10.07;;;5.50;;
77051;SDS011;65980;44.898;8.602;2024-03-02T11:01:24;9.25;;;5.38;;
77051;SDS011;65980;44.898;8.602;2024-03-02T11:04:29;7.72;;;5.80;;
77051;SDS011;65980;44.898;8.602;2024-03-02T11:07:35;9.15;;;5.45;;
77051;SDS011;65980;44.898;8.602;2024-03-02T11:10:50;7.28;;;4.68;;
77051;SDS011;65980;44.898;8.602;2024-03-02T11:13:58;7.43;;;4.93;;
77051;SDS011;65980;44.898;8.602;2024-03-02T11:17:13;9.98;;;5.20;;
77051;SDS011;65980;44.898;8.602;2024-03-02T11:20:21;7.28;;;5.00;;
77051;SDS011;65980;44.898;8.602;2024-03-02T11:23:33;6.53;;;4.88;;
77051;SDS011;65980;44.898;8.602;2024-03-02T11:26:39;9.82;;;5.68;;
77051;SDS011;65980;44.898;8.602;2024-03-02T11:29:44;8.85;;;5.60;;
77051;SDS011;65980;44.898;8.602;2024-03-02T11:32:54;13.02;;;6.18;;
77051;SDS011;65980;44.898;8.602;2024-03-02T11:35:58;8.85;;;6.07;;
77051;SDS011;65980;44.898;8.602;2024-03-02T11:39:04;9.75;;;6.28;;
77051;SDS011;65980;44.898;8.602;2024-03-02T11:42:09;9.02;;;5.80;;
77051;SDS011;65980;44.898;8.602;2024-03-02T11:45:21;9.82;;;6.22;;
77051;SDS011;65980;44.898;8.602;2024-03-02T11:48:30;11.13;;;6.85;;
77051;SDS011;65980;44.898;8.602;2024-03-02T11:51:35;12.48;;;6.68;;
77051;SDS011;65980;44.898;8.602;2024-03-02T11:54:40;9.60;;;6.43;;
77051;SDS011;65980;44.898;8.602;2024-03-02T11:57:53;9.75;;;6.18;;
77051;SDS011;65980;44.898;8.602;2024-03-02T12:00:58;11.13;;;6.93;;
77051;SDS011;65980;44.898;8.602;2024-03-02T12:04:03;10.40;;;7.32;;
77051;SDS011;65980;44.898;8.602;2024-03-02T12:07:11;10.70;;;6.63;;
77051;SDS011;65980;44.898;8.602;2024-03-02T12:10:16;10.80;;;6.70;;
77051;SDS011;65980;44.898;8.602;2024-03-02T12:13:21;9.50;;;6.22;;
77051;SDS011;65980;44.898;8.602;2024-03-02T12:16:27;11.15;;;6.95;;
77051;SDS011;65980;44.898;8.602;2024-03-02T12:19:32;10.52;;;6.90;;
77051;SDS011;65980;44.898;8.602;2024-03-02T12:22:36;9.68;;;6.30;;
77051;SDS011;65980;44.898;8.602;2024-03-02T12:25:41;11.00;;;6.15;;
77051;SDS011;65980;44.898;8.602;2024-03-02T12:28:45;12.07;;;6.20;;
77051;SDS011;65980;44.898;8.602;2024-03-02T12:31:52;8.32;;;5.35;;
77051;SDS011;65980;44.898;8.602;2024-03-02T12:34:57;8.45;;;5.50;;
77051;SDS011;65980;44.898;8.602;2024-03-02T12:38:02;9.95;;;5.80;;
77051;SDS011;65980;44.898;8.602;2024-03-02T12:41:07;7.65;;;5.35;;
77051;SDS011;65980;44.898;8.602;2024-03-02T12:44:12;7.30;;;5.00;;
77051;SDS011;65980;44.898;8.602;2024-03-02T12:47:16;8.88;;;5.13;;
77051;SDS011;65980;44.898;8.602;2024-03-02T12:50:21;6.28;;;4.25;;
77051;SDS011;65980;44.898;8.602;2024-03-02T12:53:26;6.40;;;4.45;;
77051;SDS011;65980;44.898;8.602;2024-03-02T12:56:31;6.90;;;5.30;;
77051;SDS011;65980;44.898;8.602;2024-03-02T12:59:37;7.22;;;5.05;;
77051;SDS011;65980;44.898;8.602;2024-03-02T13:02:41;7.50;;;4.82;;
77051;SDS011;65980;44.898;8.602;2024-03-02T13:05:49;7.65;;;5.38;;
77051;SDS011;65980;44.898;8.602;2024-03-02T13:08:58;7.35;;;5.70;;
77051;SDS011;65980;44.898;8.602;2024-03-02T13:12:03;8.13;;;4.88;;
77051;SDS011;65980;44.898;8.602;2024-03-02T13:15:08;6.63;;;4.78;;
77051;SDS011;65980;44.898;8.602;2024-03-02T13:18:12;6.57;;;4.65;;
77051;SDS011;65980;44.898;8.602;2024-03-02T13:21:17;7.68;;;4.90;;
77051;SDS011;65980;44.898;8.602;2024-03-02T13:24:22;8.85;;;4.70;;
77051;SDS011;65980;44.898;8.602;2024-03-02T13:27:30;6.13;;;4.47;;
77051;SDS011;65980;44.898;8.602;2024-03-02T13:30:35;7.10;;;4.65;;
77051;SDS011;65980;44.898;8.602;2024-03-02T13:33:40;7.10;;;4.60;;
77051;SDS011;65980;44.898;8.602;2024-03-02T13:36:43;5.22;;;4.43;;
77051;SDS011;65980;44.898;8.602;2024-03-02T13:39:48;6.80;;;4.18;;
77051;SDS011;65980;44.898;8.602;2024-03-02T13:42:54;6.45;;;4.82;;
77051;SDS011;65980;44.898;8.602;2024-03-02T13:45:59;6.85;;;4.68;;
77051;SDS011;65980;44.898;8.602;2024-03-02T13:49:03;11.70;;;4.95;;
77051;SDS011;65980;44.898;8.602;2024-03-02T13:52:08;5.22;;;4.13;;
77051;SDS011;65980;44.898;8.602;2024-03-02T13:55:16;9.05;;;5.68;;
77051;SDS011;65980;44.898;8.602;2024-03-02T13:58:22;11.07;;;6.65;;
77051;SDS011;65980;44.898;8.602;2024-03-02T14:01:26;9.18;;;6.22;;
77051;SDS011;65980;44.898;8.602;2024-03-02T14:04:32;9.60;;;6.10;;
77051;SDS011;65980;44.898;8.602;2024-03-02T14:07:37;8.75;;;5.30;;
77051;SDS011;65980;44.898;8.602;2024-03-02T14:10:42;7.68;;;5.22;;
77051;SDS011;65980;44.898;8.602;2024-03-02T14:16:56;8.18;;;5.28;;
77051;SDS011;65980;44.898;8.602;2024-03-02T14:20:13;7.43;;;4.88;;
77051;SDS011;65980;44.898;8.602;2024-03-02T14:23:21;7.97;;;4.50;;
77051;SDS011;65980;44.898;8.602;2024-03-02T14:26:27;6.05;;;4.60;;
77051;SDS011;65980;44.898;8.602;2024-03-02T14:29:31;8.25;;;4.00;;
77051;SDS011;65980;44.898;8.602;2024-03-02T14:32:40;4.95;;;3.80;;
77051;SDS011;65980;44.898;8.602;2024-03-02T14:35:45;5.00;;;3.88;;
77051;SDS011;65980;44.898;8.602;2024-03-02T14:38:49;5.05;;;3.80;;
77051;SDS011;65980;44.898;8.602;2024-03-02T14:41:54;6.60;;;4.38;;
77051;SDS011;65980;44.898;8.602;2024-03-02T14:44:59;5.90;;;4.43;;
77051;SDS011;65980;44.898;8.602;2024-03-02T14:48:04;5.93;;;3.65;;
77051;SDS011;65980;44.898;8.602;2024-03-02T14:51:09;4.95;;;3.47;;
77051;SDS011;65980;44.898;8.602;2024-03-02T14:54:14;5.13;;;3.55;;
77051;SDS011;65980;44.898;8.602;2024-03-02T14:57:18;6.13;;;3.92;;
77051;SDS011;65980;44.898;8.602;2024-03-02T15:00:22;7.30;;;3.83;;
77051;SDS011;65980;44.898;8.602;2024-03-02T15:03:27;5.68;;;4.07;;
77051;SDS011;65980;44.898;8.602;2024-03-02T15:06:32;6.47;;;4.22;;
77051;SDS011;65980;44.898;8.602;2024-03-02T15:09:36;7.53;;;4.15;;
77051;SDS011;65980;44.898;8.602;2024-03-02T15:12:40;5.85;;;4.05;;
77051;SDS011;65980;44.898;8.602;2024-03-02T15:15:45;5.68;;;4.60;;
77051;SDS011;65980;44.898;8.602;2024-03-02T15:18:49;6.95;;;5.00;;
77051;SDS011;65980;44.898;8.602;2024-03-02T15:21:55;7.82;;;5.03;;
77051;SDS011;65980;44.898;8.602;2024-03-02T15:25:00;10.15;;;4.90;;
77051;SDS011;65980;44.898;8.602;2024-03-02T15:28:05;10.40;;;5.53;;
77051;SDS011;65980;44.898;8.602;2024-03-02T15:31:09;7.68;;;4.75;;
77051;SDS011;65980;44.898;8.602;2024-03-02T15:37:20;7.03;;;4.13;;
77051;SDS011;65980;44.898;8.602;2024-03-02T15:40:24;6.68;;;4.40;;
77051;SDS011;65980;44.898;8.602;2024-03-02T15:43:31;8.65;;;4.30;;
77051;SDS011;65980;44.898;8.602;2024-03-02T15:46:36;7.63;;;4.38;;
77051;SDS011;65980;44.898;8.602;2024-03-02T15:49:42;9.00;;;4.97;;
77051;SDS011;65980;44.898;8.602;2024-03-02T15:52:46;7.07;;;4.63;;
77051;SDS011;65980;44.898;8.602;2024-03-02T15:58:54;3.85;;;1.80;;
77051;SDS011;65980;44.898;8.602;2024-03-02T16:01:59;7.68;;;2.85;;
77051;SDS011;65980;44.898;8.602;2024-03-02T16:05:03;5.53;;;2.67;;
77051;SDS011;65980;44.898;8.602;2024-03-02T16:08:08;5.22;;;1.92;;
77051;SDS011;65980;44.898;8.602;2024-03-02T16:11:14;2.88;;;1.67;;
77051;SDS011;65980;44.898;8.602;2024-03-02T16:14:18;5.03;;;2.10;;
77051;SDS011;65980;44.898;8.602;2024-03-02T16:17:22;6.35;;;3.00;;
77051;SDS011;65980;44.898;8.602;2024-03-02T16:20:26;1.80;;;1.30;;
77051;SDS011;65980;44.898;8.602;2024-03-02T16:23:30;5.78;;;1.77;;
77051;SDS011;65980;44.898;8.602;2024-03-02T16:26:34;2.83;;;1.70;;
77051;SDS011;65980;44.898;8.602;2024-03-02T16:29:38;3.40;;;1.90;;
77051;SDS011;65980;44.898;8.602;2024-03-02T16:32:43;9.45;;;3.13;;
77051;SDS011;65980;44.898;8.602;2024-03-02T16:35:47;4.68;;;2.65;;
77051;SDS011;65980;44.898;8.602;2024-03-02T16:38:53;9.88;;;3.60;;
77051;SDS011;65980;44.898;8.602;2024-03-02T16:41:58;6.97;;;3.50;;
77051;SDS011;65980;44.898;8.602;2024-03-02T16:45:04;7.53;;;3.80;;
77051;SDS011;65980;44.898;8.602;2024-03-02T16:48:08;6.18;;;1.90;;
77051;SDS011;65980;44.898;8.602;2024-03-02T16:51:12;7.15;;;2.38;;
77051;SDS011;65980;44.898;8.602;2024-03-02T16:54:17;10.35;;;3.75;;
77051;SDS011;65980;44.898;8.602;2024-03-02T16:57:22;6.53;;;2.88;;
77051;SDS011;65980;44.898;8.602;2024-03-02T17:06:34;25.88;;;2.45;;
77051;SDS011;65980;44.898;8.602;2024-03-02T17:09:39;4.43;;;1.73;;
77051;SDS011;65980;44.898;8.602;2024-03-02T17:12:43;6.25;;;1.83;;
77051;SDS011;65980;44.898;8.602;2024-03-02T17:15:48;7.78;;;2.10;;
77051;SDS011;65980;44.898;8.602;2024-03-02T17:18:54;6.78;;;2.05;;
77051;SDS011;65980;44.898;8.602;2024-03-02T17:21:58;7.85;;;2.30;;
77051;SDS011;65980;44.898;8.602;2024-03-02T17:25:03;6.05;;;2.10;;
77051;SDS011;65980;44.898;8.602;2024-03-02T17:31:45;3.80;;;2.35;;
77051;SDS011;65980;44.898;8.602;2024-03-02T17:34:51;11.70;;;2.60;;
77051;SDS011;65980;44.898;8.602;2024-03-02T17:40:59;10.73;;;2.30;;
77051;SDS011;65980;44.898;8.602;2024-03-02T17:44:04;10.48;;;3.42;;
77051;SDS011;65980;44.898;8.602;2024-03-02T17:47:10;9.13;;;2.60;;
77051;SDS011;65980;44.898;8.602;2024-03-02T17:50:14;5.45;;;1.85;;
77051;SDS011;65980;44.898;8.602;2024-03-02T17:53:19;5.63;;;1.88;;
77051;SDS011;65980;44.898;8.602;2024-03-02T17:56:23;13.68;;;2.40;;
77051;SDS011;65980;44.898;8.602;2024-03-02T17:59:28;6.68;;;2.13;;
77051;SDS011;65980;44.898;8.602;2024-03-02T18:02:33;6.88;;;1.80;;
77051;SDS011;65980;44.898;8.602;2024-03-02T18:05:38;9.32;;;2.35;;
77051;SDS011;65980;44.898;8.602;2024-03-02T18:08:43;8.35;;;1.98;;
77051;SDS011;65980;44.898;8.602;2024-03-02T18:11:47;5.53;;;1.50;;
77051;SDS011;65980;44.898;8.602;2024-03-02T18:14:52;3.97;;;1.70;;
77051;SDS011;65980;44.898;8.602;2024-03-02T18:17:57;2.72;;;1.30;;
77051;SDS011;65980;44.898;8.602;2024-03-02T18:21:03;2.90;;;1.52;;
77051;SDS011;65980;44.898;8.602;2024-03-02T18:24:08;5.88;;;1.38;;
77051;SDS011;65980;44.898;8.602;2024-03-02T18:27:13;3.70;;;1.30;;
77051;SDS011;65980;44.898;8.602;2024-03-02T18:30:18;6.15;;;2.22;;
77051;SDS011;65980;44.898;8.602;2024-03-02T18:33:23;2.88;;;1.00;;
77051;SDS011;65980;44.898;8.602;2024-03-02T18:36:28;5.45;;;1.20;;
77051;SDS011;65980;44.898;8.602;2024-03-02T18:39:35;2.97;;;1.10;;
77051;SDS011;65980;44.898;8.602;2024-03-02T18:42:39;3.67;;;1.30;;
77051;SDS011;65980;44.898;8.602;2024-03-02T18:45:44;2.97;;;1.27;;
77051;SDS011;65980;44.898;8.602;2024-03-02T18:48:48;4.43;;;1.00;;
77051;SDS011;65980;44.898;8.602;2024-03-02T18:51:53;7.80;;;1.60;;
77051;SDS011;65980;44.898;8.602;2024-03-02T18:54:58;4.65;;;1.00;;
77051;SDS011;65980;44.898;8.602;2024-03-02T18:58:03;6.20;;;1.33;;
77051;SDS011;65980;44.898;8.602;2024-03-02T19:01:07;3.40;;;1.10;;
77051;SDS011;65980;44.898;8.602;2024-03-02T19:04:12;3.45;;;1.13;;
77051;SDS011;65980;44.898;8.602;2024-03-02T19:07:17;3.72;;;1.20;;
77051;SDS011;65980;44.898;8.602;2024-03-02T19:10:22;4.10;;;1.10;;
77051;SDS011;65980;44.898;8.602;2024-03-02T19:13:26;6.03;;;1.30;;
77051;SDS011;65980;44.898;8.602;2024-03-02T19:16:30;3.85;;;1.25;;
77051;SDS011;65980;44.898;8.602;2024-03-02T19:19:34;3.83;;;1.73;;